sensor_id;sensor_type;location;lat;lon;timestamp;P1;durP1;ratioP1;P2;durP2;ratioP2
25327;SDS011;13279;51.300;12.394;2024-03-17T00:02:05;15.93;;;3.53;;
25327;SDS011;13279;51.300;12.394;2024-03-17T00:04:32;3.27;;;2.73;;
25327;SDS011;13279;51.300;12.394;2024-03-17T00:07:00;4.63;;;2.27;;
25327;SDS011;13279;51.300;12.394;2024-03-17T00:09:27;2.73;;;2.20;;
25327;SDS011;13279;51.300;12.394;2024-03-17T00:11:54;6.37;;;2.80;;
25327;SDS011;13279;51.300;12.394;2024-03-17T00:14:21;5.67;;;2.27;;
25327;SDS011;13279;51.300;12.394;2024-03-17T00:16:48;6.23;;;2.77;;
25327;SDS011;13279;51.300;12.394;2024-03-17T00:19:15;5.90;;;2.70;;
25327;SDS011;13279;51.300;12.394;2024-03-17T00:21:43;4.23;;;2.53;;
25327;SDS011;13279;51.300;12.394;2024-03-17T00:24:10;9.50;;;2.70;;
25327;SDS011;13279;51.300;12.394;2024-03-17T00:26:39;4.00;;;3.00;;
25327;SDS011;13279;51.300;12.394;2024-03-17T00:29:05;11.77;;;3.47;;
25327;SDS011;13279;51.300;12.394;2024-03-17T00:31:32;7.60;;;2.30;;
25327;SDS011;13279;51.300;12.394;2024-03-17T00:33:58;6.93;;;3.43;;
25327;SDS011;13279;51.300;12.394;2024-03-17T00:36:26;7.57;;;2.70;;
25327;SDS011;13279;51.300;12.394;2024-03-17T00:38:53;5.27;;;2.97;;
25327;SDS011;13279;51.300;12.394;2024-03-17T00:41:21;4.13;;;2.93;;
25327;SDS011;13279;51.300;12.394;2024-03-17T00:43:48;5.27;;;2.93;;
25327;SDS011;13279;51.300;12.394;2024-03-17T00:46:15;8.30;;;3.10;;
25327;SDS011;13279;51.300;12.394;2024-03-17T00:48:43;5.10;;;3.33;;
25327;SDS011;13279;51.300;12.394;2024-03-17T00:51:12;13.50;;;3.23;;
25327;SDS011;13279;51.300;12.394;2024-03-17T00:53:39;10.50;;;3.30;;
25327;SDS011;13279;51.300;12.394;2024-03-17T00:56:06;4.77;;;3.03;;
25327;SDS011;13279;51.300;12.394;2024-03-17T00:58:34;5.13;;;3.23;;
25327;SDS011;13279;51.300;12.394;2024-03-17T01:01:01;13.07;;;3.23;;
25327;SDS011;13279;51.300;12.394;2024-03-17T01:03:28;8.20;;;3.10;;
25327;SDS011;13279;51.300;12.394;2024-03-17T01:05:54;7.20;;;3.27;;
25327;SDS011;13279;51.300;12.394;2024-03-17T01:08:21;4.87;;;3.13;;
25327;SDS011;13279;51.300;12.394;2024-03-17T01:10:48;9.80;;;3.37;;
25327;SDS011;13279;51.300;12.394;2024-03-17T01:13:16;5.67;;;3.67;;
25327;SDS011;13279;51.300;12.394;2024-03-17T01:15:44;4.27;;;3.30;;
25327;SDS011;13279;51.300;12.394;2024-03-17T01:18:11;6.33;;;3.70;;
25327;SDS011;13279;51.300;12.394;2024-03-17T01:20:38;4.83;;;3.27;;
25327;SDS011;13279;51.300;12.394;2024-03-17T01:23:05;4.47;;;3.10;;
25327;SDS011;13279;51.300;12.394;2024-03-17T01:25:33;3.53;;;2.93;;
25327;SDS011;13279;51.300;12.394;2024-03-17T01:28:03;10.90;;;3.33;;
25327;SDS011;13279;51.300;12.394;2024-03-17T01:30:29;8.33;;;2.93;;
25327;SDS011;13279;51.300;12.394;2024-03-17T01:33:00;3.83;;;2.83;;
25327;SDS011;13279;51.300;12.394;2024-03-17T01:35:27;7.83;;;3.20;;
25327;SDS011;13279;51.300;12.394;2024-03-17T01:37:54;4.63;;;3.00;;
25327;SDS011;13279;51.300;12.394;2024-03-17T01:40:21;4.10;;;3.40;;
25327;SDS011;13279;51.300;12.394;2024-03-17T01:42:47;6.30;;;3.13;;
25327;SDS011;13279;51.300;12.394;2024-03-17T01:45:20;10.17;;;3.33;;
25327;SDS011;13279;51.300;12.394;2024-03-17T01:47:51;3.43;;;2.93;;
25327;SDS011;13279;51.300;12.394;2024-03-17T01:50:20;2.73;;;2.43;;
25327;SDS011;13279;51.300;12.394;2024-03-17T01:52:51;6.53;;;2.90;;
25327;SDS011;13279;51.300;12.394;2024-03-17T01:55:20;9.47;;;2.80;;
25327;SDS011;13279;51.300;12.394;2024-03-17T01:57:47;4.30;;;2.87;;
25327;SDS011;13279;51.300;12.394;2024-03-17T02:00:16;10.20;;;3.20;;
25327;SDS011;13279;51.300;12.394;2024-03-17T02:02:43;5.80;;;3.13;;
25327;SDS011;13279;51.300;12.394;2024-03-17T02:09:00;11.67;;;2.67;;
25327;SDS011;13279;51.300;12.394;2024-03-17T02:11:29;3.40;;;2.70;;
25327;SDS011;13279;51.300;12.394;2024-03-17T02:13:57;6.00;;;3.27;;
25327;SDS011;13279;51.300;12.394;2024-03-17T02:16:25;4.40;;;2.40;;
25327;SDS011;13279;51.300;12.394;2024-03-17T02:18:53;7.60;;;3.40;;
25327;SDS011;13279;51.300;12.394;2024-03-17T02:21:21;7.87;;;3.23;;
25327;SDS011;13279;51.300;12.394;2024-03-17T02:23:50;6.33;;;2.97;;
25327;SDS011;13279;51.300;12.394;2024-03-17T02:26:17;5.40;;;3.00;;
25327;SDS011;13279;51.300;12.394;2024-03-17T02:28:46;6.33;;;3.00;;
25327;SDS011;13279;51.300;12.394;2024-03-17T02:31:14;4.20;;;2.53;;
25327;SDS011;13279;51.300;12.394;2024-03-17T02:33:41;4.20;;;2.37;;
25327;SDS011;13279;51.300;12.394;2024-03-17T02:36:10;5.70;;;2.73;;
25327;SDS011;13279;51.300;12.394;2024-03-17T02:38:38;4.47;;;3.10;;
25327;SDS011;13279;51.300;12.394;2024-03-17T02:41:25;7.50;;;3.83;;
25327;SDS011;13279;51.300;12.394;2024-03-17T02:43:53;10.93;;;3.50;;
25327;SDS011;13279;51.300;12.394;2024-03-17T02:46:21;7.23;;;3.27;;
25327;SDS011;13279;51.300;12.394;2024-03-17T02:48:49;8.03;;;3.20;;
25327;SDS011;13279;51.300;12.394;2024-03-17T02:51:18;7.30;;;3.00;;
25327;SDS011;13279;51.300;12.394;2024-03-17T02:53:47;3.47;;;2.87;;
25327;SDS011;13279;51.300;12.394;2024-03-17T02:56:16;7.83;;;2.80;;
25327;SDS011;13279;51.300;12.394;2024-03-17T02:58:45;8.97;;;2.50;;
25327;SDS011;13279;51.300;12.394;2024-03-17T03:01:14;9.23;;;3.37;;
25327;SDS011;13279;51.300;12.394;2024-03-17T03:03:42;10.00;;;3.37;;
25327;SDS011;13279;51.300;12.394;2024-03-17T03:06:11;5.53;;;3.03;;
25327;SDS011;13279;51.300;12.394;2024-03-17T03:08:38;11.63;;;3.27;;
25327;SDS011;13279;51.300;12.394;2024-03-17T03:11:06;5.53;;;2.63;;
25327;SDS011;13279;51.300;12.394;2024-03-17T03:13:36;4.83;;;2.77;;
25327;SDS011;13279;51.300;12.394;2024-03-17T03:16:06;6.53;;;3.17;;
25327;SDS011;13279;51.300;12.394;2024-03-17T03:18:34;7.10;;;3.03;;
25327;SDS011;13279;51.300;12.394;2024-03-17T03:21:02;9.17;;;2.93;;
25327;SDS011;13279;51.300;12.394;2024-03-17T03:23:29;6.53;;;3.20;;
25327;SDS011;13279;51.300;12.394;2024-03-17T03:25:57;4.90;;;2.50;;
25327;SDS011;13279;51.300;12.394;2024-03-17T03:28:24;7.60;;;3.30;;
25327;SDS011;13279;51.300;12.394;2024-03-17T03:30:53;5.07;;;2.93;;
25327;SDS011;13279;51.300;12.394;2024-03-17T03:33:23;7.53;;;3.17;;
25327;SDS011;13279;51.300;12.394;2024-03-17T03:35:51;12.07;;;3.40;;
25327;SDS011;13279;51.300;12.394;2024-03-17T03:38:18;5.10;;;3.23;;
25327;SDS011;13279;51.300;12.394;2024-03-17T03:40:45;8.23;;;3.33;;
25327;SDS011;13279;51.300;12.394;2024-03-17T03:43:14;6.07;;;2.90;;
25327;SDS011;13279;51.300;12.394;2024-03-17T03:45:41;8.17;;;3.53;;
25327;SDS011;13279;51.300;12.394;2024-03-17T03:48:11;7.70;;;3.70;;
25327;SDS011;13279;51.300;12.394;2024-03-17T03:50:39;8.33;;;4.17;;
25327;SDS011;13279;51.300;12.394;2024-03-17T03:53:07;5.63;;;3.37;;
25327;SDS011;13279;51.300;12.394;2024-03-17T03:55:34;10.20;;;3.40;;
25327;SDS011;13279;51.300;12.394;2024-03-17T03:58:03;8.97;;;3.30;;
25327;SDS011;13279;51.300;12.394;2024-03-17T04:00:30;7.93;;;3.10;;
25327;SDS011;13279;51.300;12.394;2024-03-17T04:02:58;3.70;;;3.10;;
25327;SDS011;13279;51.300;12.394;2024-03-17T04:05:27;5.93;;;3.37;;
25327;SDS011;13279;51.300;12.394;2024-03-17T04:07:56;3.83;;;2.90;;
25327;SDS011;13279;51.300;12.394;2024-03-17T04:10:24;6.93;;;3.63;;
25327;SDS011;13279;51.300;12.394;2024-03-17T04:12:52;5.27;;;3.40;;
25327;SDS011;13279;51.300;12.394;2024-03-17T04:15:19;6.07;;;3.50;;
25327;SDS011;13279;51.300;12.394;2024-03-17T04:17:47;8.70;;;3.03;;
25327;SDS011;13279;51.300;12.394;2024-03-17T04:20:14;6.50;;;3.87;;
25327;SDS011;13279;51.300;12.394;2024-03-17T04:22:42;7.40;;;4.10;;
25327;SDS011;13279;51.300;12.394;2024-03-17T04:25:10;5.83;;;3.20;;
25327;SDS011;13279;51.300;12.394;2024-03-17T04:27:39;6.10;;;3.33;;
25327;SDS011;13279;51.300;12.394;2024-03-17T04:30:07;6.27;;;3.37;;
25327;SDS011;13279;51.300;12.394;2024-03-17T04:32:37;7.53;;;3.03;;
25327;SDS011;13279;51.300;12.394;2024-03-17T04:35:06;4.83;;;3.07;;
25327;SDS011;13279;51.300;12.394;2024-03-17T04:37:33;6.63;;;3.00;;
25327;SDS011;13279;51.300;12.394;2024-03-17T04:40:05;10.70;;;3.77;;
25327;SDS011;13279;51.300;12.394;2024-03-17T04:42:37;8.47;;;4.13;;
25327;SDS011;13279;51.300;12.394;2024-03-17T04:45:05;7.87;;;3.60;;
25327;SDS011;13279;51.300;12.394;2024-03-17T04:47:35;7.93;;;3.73;;
25327;SDS011;13279;51.300;12.394;2024-03-17T04:50:03;8.27;;;3.63;;
25327;SDS011;13279;51.300;12.394;2024-03-17T04:52:31;6.70;;;3.70;;
25327;SDS011;13279;51.300;12.394;2024-03-17T04:54:58;7.07;;;3.10;;
25327;SDS011;13279;51.300;12.394;2024-03-17T04:57:26;8.00;;;3.47;;
25327;SDS011;13279;51.300;12.394;2024-03-17T04:59:54;3.67;;;3.30;;
25327;SDS011;13279;51.300;12.394;2024-03-17T05:02:22;8.53;;;3.53;;
25327;SDS011;13279;51.300;12.394;2024-03-17T05:04:49;7.37;;;3.53;;
25327;SDS011;13279;51.300;12.394;2024-03-17T05:07:16;5.23;;;2.90;;
25327;SDS011;13279;51.300;12.394;2024-03-17T05:09:44;4.53;;;3.23;;
25327;SDS011;13279;51.300;12.394;2024-03-17T05:12:11;5.73;;;3.10;;
25327;SDS011;13279;51.300;12.394;2024-03-17T05:14:38;10.20;;;3.70;;
25327;SDS011;13279;51.300;12.394;2024-03-17T05:17:07;6.37;;;3.50;;
25327;SDS011;13279;51.300;12.394;2024-03-17T05:19:34;12.27;;;4.37;;
25327;SDS011;13279;51.300;12.394;2024-03-17T05:22:02;4.97;;;3.13;;
25327;SDS011;13279;51.300;12.394;2024-03-17T05:24:29;6.47;;;3.60;;
25327;SDS011;13279;51.300;12.394;2024-03-17T05:26:56;9.93;;;3.20;;
25327;SDS011;13279;51.300;12.394;2024-03-17T05:29:23;7.20;;;4.00;;
25327;SDS011;13279;51.300;12.394;2024-03-17T05:31:51;7.50;;;4.03;;
25327;SDS011;13279;51.300;12.394;2024-03-17T05:34:19;6.33;;;3.37;;
25327;SDS011;13279;51.300;12.394;2024-03-17T05:36:46;7.87;;;3.47;;
25327;SDS011;13279;51.300;12.394;2024-03-17T05:39:13;8.03;;;4.47;;
25327;SDS011;13279;51.300;12.394;2024-03-17T05:41:41;7.53;;;3.33;;
25327;SDS011;13279;51.300;12.394;2024-03-17T05:44:08;4.30;;;3.40;;
25327;SDS011;13279;51.300;12.394;2024-03-17T05:46:36;9.43;;;3.17;;
25327;SDS011;13279;51.300;12.394;2024-03-17T05:49:03;7.83;;;3.07;;
25327;SDS011;13279;51.300;12.394;2024-03-17T05:51:33;5.73;;;3.33;;
25327;SDS011;13279;51.300;12.394;2024-03-17T05:54:00;7.07;;;3.83;;
25327;SDS011;13279;51.300;12.394;2024-03-17T05:56:28;6.57;;;3.20;;
25327;SDS011;13279;51.300;12.394;2024-03-17T05:58:55;7.87;;;4.00;;
25327;SDS011;13279;51.300;12.394;2024-03-17T06:01:23;11.80;;;4.07;;
25327;SDS011;13279;51.300;12.394;2024-03-17T06:03:50;8.77;;;3.80;;
25327;SDS011;13279;51.300;12.394;2024-03-17T06:06:17;5.70;;;3.70;;
25327;SDS011;13279;51.300;12.394;2024-03-17T06:08:45;4.87;;;3.37;;
25327;SDS011;13279;51.300;12.394;2024-03-17T06:11:15;11.03;;;3.57;;
25327;SDS011;13279;51.300;12.394;2024-03-17T06:13:42;5.50;;;3.33;;
25327;SDS011;13279;51.300;12.394;2024-03-17T06:16:09;8.53;;;4.40;;
25327;SDS011;13279;51.300;12.394;2024-03-17T06:18:36;7.63;;;3.53;;
25327;SDS011;13279;51.300;12.394;2024-03-17T06:21:04;7.37;;;3.87;;
25327;SDS011;13279;51.300;12.394;2024-03-17T06:23:35;8.57;;;3.97;;
25327;SDS011;13279;51.300;12.394;2024-03-17T06:26:03;5.47;;;3.43;;
25327;SDS011;13279;51.300;12.394;2024-03-17T06:28:31;7.97;;;3.93;;
25327;SDS011;13279;51.300;12.394;2024-03-17T06:30:58;6.77;;;4.13;;
25327;SDS011;13279;51.300;12.394;2024-03-17T06:33:27;6.73;;;4.10;;
25327;SDS011;13279;51.300;12.394;2024-03-17T06:35:56;7.40;;;3.47;;
25327;SDS011;13279;51.300;12.394;2024-03-17T06:38:23;7.27;;;4.07;;
25327;SDS011;13279;51.300;12.394;2024-03-17T06:40:50;7.70;;;3.60;;
25327;SDS011;13279;51.300;12.394;2024-03-17T06:43:20;7.80;;;4.33;;
25327;SDS011;13279;51.300;12.394;2024-03-17T06:45:54;4.30;;;3.57;;
25327;SDS011;13279;51.300;12.394;2024-03-17T06:48:22;6.70;;;4.00;;
25327;SDS011;13279;51.300;12.394;2024-03-17T06:50:52;9.87;;;3.90;;
25327;SDS011;13279;51.300;12.394;2024-03-17T06:53:20;7.73;;;3.80;;
25327;SDS011;13279;51.300;12.394;2024-03-17T06:55:54;5.73;;;3.87;;
25327;SDS011;13279;51.300;12.394;2024-03-17T06:58:23;5.70;;;3.27;;
25327;SDS011;13279;51.300;12.394;2024-03-17T07:00:53;5.60;;;3.67;;
25327;SDS011;13279;51.300;12.394;2024-03-17T07:03:22;5.40;;;3.93;;
25327;SDS011;13279;51.300;12.394;2024-03-17T07:05:51;9.03;;;3.60;;
25327;SDS011;13279;51.300;12.394;2024-03-17T07:08:19;8.40;;;3.70;;
25327;SDS011;13279;51.300;12.394;2024-03-17T07:10:59;4.87;;;3.47;;
25327;SDS011;13279;51.300;12.394;2024-03-17T07:13:30;5.13;;;3.67;;
25327;SDS011;13279;51.300;12.394;2024-03-17T07:15:58;8.43;;;3.53;;
25327;SDS011;13279;51.300;12.394;2024-03-17T07:18:27;10.63;;;3.53;;
25327;SDS011;13279;51.300;12.394;2024-03-17T07:20:56;6.33;;;4.03;;
25327;SDS011;13279;51.300;12.394;2024-03-17T07:23:24;5.67;;;3.23;;
25327;SDS011;13279;51.300;12.394;2024-03-17T07:25:52;6.43;;;3.80;;
25327;SDS011;13279;51.300;12.394;2024-03-17T07:28:20;6.33;;;3.37;;
25327;SDS011;13279;51.300;12.394;2024-03-17T07:30:49;6.63;;;3.30;;
25327;SDS011;13279;51.300;12.394;2024-03-17T07:33:17;7.90;;;3.20;;
25327;SDS011;13279;51.300;12.394;2024-03-17T07:35:49;7.93;;;3.50;;
25327;SDS011;13279;51.300;12.394;2024-03-17T07:38:17;8.33;;;4.10;;
25327;SDS011;13279;51.300;12.394;2024-03-17T07:40:45;7.70;;;3.27;;
25327;SDS011;13279;51.300;12.394;2024-03-17T07:43:22;6.33;;;3.37;;
25327;SDS011;13279;51.300;12.394;2024-03-17T07:45:57;14.63;;;4.23;;
25327;SDS011;13279;51.300;12.394;2024-03-17T07:48:26;8.03;;;3.80;;
25327;SDS011;13279;51.300;12.394;2024-03-17T07:50:56;5.23;;;3.27;;
25327;SDS011;13279;51.300;12.394;2024-03-17T07:53:26;8.30;;;3.33;;
25327;SDS011;13279;51.300;12.394;2024-03-17T07:55:56;5.57;;;3.00;;
25327;SDS011;13279;51.300;12.394;2024-03-17T07:58:25;7.17;;;3.63;;
25327;SDS011;13279;51.300;12.394;2024-03-17T08:00:52;12.27;;;3.43;;
25327;SDS011;13279;51.300;12.394;2024-03-17T08:03:26;7.13;;;3.33;;
25327;SDS011;13279;51.300;12.394;2024-03-17T08:05:53;10.03;;;3.47;;
25327;SDS011;13279;51.300;12.394;2024-03-17T08:08:21;10.13;;;3.13;;
25327;SDS011;13279;51.300;12.394;2024-03-17T08:10:48;8.73;;;2.60;;
25327;SDS011;13279;51.300;12.394;2024-03-17T08:13:16;6.57;;;3.43;;
25327;SDS011;13279;51.300;12.394;2024-03-17T08:15:44;14.87;;;2.80;;
25327;SDS011;13279;51.300;12.394;2024-03-17T08:18:13;14.93;;;4.27;;
25327;SDS011;13279;51.300;12.394;2024-03-17T08:20:41;12.20;;;3.30;;
25327;SDS011;13279;51.300;12.394;2024-03-17T08:23:09;8.77;;;2.77;;
25327;SDS011;13279;51.300;12.394;2024-03-17T08:25:37;10.67;;;2.60;;
25327;SDS011;13279;51.300;12.394;2024-03-17T08:28:04;10.63;;;2.80;;
25327;SDS011;13279;51.300;12.394;2024-03-17T08:30:32;7.17;;;2.77;;
25327;SDS011;13279;51.300;12.394;2024-03-17T08:32:59;12.27;;;3.47;;
25327;SDS011;13279;51.300;12.394;2024-03-17T08:35:28;9.53;;;3.03;;
25327;SDS011;13279;51.300;12.394;2024-03-17T08:37:56;14.20;;;3.63;;
25327;SDS011;13279;51.300;12.394;2024-03-17T08:40:24;8.03;;;3.17;;
25327;SDS011;13279;51.300;12.394;2024-03-17T08:42:51;8.43;;;3.30;;
25327;SDS011;13279;51.300;12.394;2024-03-17T08:45:18;9.23;;;3.67;;
25327;SDS011;13279;51.300;12.394;2024-03-17T08:47:50;9.90;;;3.63;;
25327;SDS011;13279;51.300;12.394;2024-03-17T08:50:18;13.23;;;4.63;;
25327;SDS011;13279;51.300;12.394;2024-03-17T08:52:46;10.63;;;3.40;;
25327;SDS011;13279;51.300;12.394;2024-03-17T08:55:14;10.50;;;3.13;;
25327;SDS011;13279;51.300;12.394;2024-03-17T08:57:41;5.57;;;3.50;;
25327;SDS011;13279;51.300;12.394;2024-03-17T09:00:09;8.73;;;3.37;;
25327;SDS011;13279;51.300;12.394;2024-03-17T09:02:36;9.53;;;3.37;;
25327;SDS011;13279;51.300;12.394;2024-03-17T09:05:04;10.57;;;3.30;;
25327;SDS011;13279;51.300;12.394;2024-03-17T09:07:31;12.53;;;3.53;;
25327;SDS011;13279;51.300;12.394;2024-03-17T09:10:00;9.90;;;4.23;;
25327;SDS011;13279;51.300;12.394;2024-03-17T09:12:27;12.27;;;4.00;;
25327;SDS011;13279;51.300;12.394;2024-03-17T09:14:55;11.83;;;3.37;;
25327;SDS011;13279;51.300;12.394;2024-03-17T09:17:22;10.67;;;2.60;;
25327;SDS011;13279;51.300;12.394;2024-03-17T09:19:49;8.00;;;2.67;;
25327;SDS011;13279;51.300;12.394;2024-03-17T09:22:16;10.67;;;2.93;;
25327;SDS011;13279;51.300;12.394;2024-03-17T09:24:44;9.83;;;2.70;;
25327;SDS011;13279;51.300;12.394;2024-03-17T09:27:13;6.23;;;2.70;;
25327;SDS011;13279;51.300;12.394;2024-03-17T09:29:45;4.37;;;2.53;;
25327;SDS011;13279;51.300;12.394;2024-03-17T09:32:12;9.50;;;2.93;;
25327;SDS011;13279;51.300;12.394;2024-03-17T09:34:46;11.20;;;2.60;;
25327;SDS011;13279;51.300;12.394;2024-03-17T09:37:14;12.07;;;2.87;;
25327;SDS011;13279;51.300;12.394;2024-03-17T09:39:42;10.27;;;3.03;;
25327;SDS011;13279;51.300;12.394;2024-03-17T09:42:13;8.57;;;2.40;;
25327;SDS011;13279;51.300;12.394;2024-03-17T09:44:45;12.83;;;3.23;;
25327;SDS011;13279;51.300;12.394;2024-03-17T09:47:15;4.83;;;2.73;;
25327;SDS011;13279;51.300;12.394;2024-03-17T09:49:46;10.73;;;2.83;;
25327;SDS011;13279;51.300;12.394;2024-03-17T09:52:16;11.87;;;3.30;;
25327;SDS011;13279;51.300;12.394;2024-03-17T09:54:49;9.20;;;2.80;;
25327;SDS011;13279;51.300;12.394;2024-03-17T09:57:22;8.53;;;2.60;;
25327;SDS011;13279;51.300;12.394;2024-03-17T09:59:51;9.40;;;3.47;;
25327;SDS011;13279;51.300;12.394;2024-03-17T10:02:20;7.60;;;3.07;;
25327;SDS011;13279;51.300;12.394;2024-03-17T10:04:48;16.00;;;3.40;;
25327;SDS011;13279;51.300;12.394;2024-03-17T10:07:15;5.90;;;2.77;;
25327;SDS011;13279;51.300;12.394;2024-03-17T10:09:43;12.93;;;4.27;;
25327;SDS011;13279;51.300;12.394;2024-03-17T10:12:30;15.80;;;3.30;;
25327;SDS011;13279;51.300;12.394;2024-03-17T10:14:58;9.13;;;2.80;;
25327;SDS011;13279;51.300;12.394;2024-03-17T10:17:28;8.30;;;3.20;;
25327;SDS011;13279;51.300;12.394;2024-03-17T10:20:10;10.20;;;3.87;;
25327;SDS011;13279;51.300;12.394;2024-03-17T10:22:57;6.97;;;3.20;;
25327;SDS011;13279;51.300;12.394;2024-03-17T10:25:29;11.73;;;3.50;;
25327;SDS011;13279;51.300;12.394;2024-03-17T10:27:59;6.37;;;3.20;;
25327;SDS011;13279;51.300;12.394;2024-03-17T10:30:28;4.83;;;2.90;;
25327;SDS011;13279;51.300;12.394;2024-03-17T10:32:56;11.60;;;3.30;;
25327;SDS011;13279;51.300;12.394;2024-03-17T10:35:26;10.73;;;2.90;;
25327;SDS011;13279;51.300;12.394;2024-03-17T10:37:54;10.33;;;3.53;;
25327;SDS011;13279;51.300;12.394;2024-03-17T10:40:23;10.43;;;3.60;;
25327;SDS011;13279;51.300;12.394;2024-03-17T10:42:51;14.20;;;3.57;;
25327;SDS011;13279;51.300;12.394;2024-03-17T10:45:20;12.87;;;3.73;;
25327;SDS011;13279;51.300;12.394;2024-03-17T10:47:48;8.13;;;3.60;;
25327;SDS011;13279;51.300;12.394;2024-03-17T10:50:18;7.07;;;3.93;;
25327;SDS011;13279;51.300;12.394;2024-03-17T10:52:47;9.70;;;3.30;;
25327;SDS011;13279;51.300;12.394;2024-03-17T10:55:22;14.63;;;5.77;;
25327;SDS011;13279;51.300;12.394;2024-03-17T10:57:51;7.00;;;3.73;;
25327;SDS011;13279;51.300;12.394;2024-03-17T11:00:22;8.90;;;4.40;;
25327;SDS011;13279;51.300;12.394;2024-03-17T11:02:51;10.97;;;4.07;;
25327;SDS011;13279;51.300;12.394;2024-03-17T11:05:21;5.50;;;4.20;;
25327;SDS011;13279;51.300;12.394;2024-03-17T11:07:49;10.73;;;4.50;;
25327;SDS011;13279;51.300;12.394;2024-03-17T11:10:21;11.57;;;4.03;;
25327;SDS011;13279;51.300;12.394;2024-03-17T11:12:50;12.50;;;4.97;;
25327;SDS011;13279;51.300;12.394;2024-03-17T11:15:41;10.63;;;5.20;;
25327;SDS011;13279;51.300;12.394;2024-03-17T11:20:57;9.00;;;5.43;;
25327;SDS011;13279;51.300;12.394;2024-03-17T11:23:28;9.27;;;5.50;;
25327;SDS011;13279;51.300;12.394;2024-03-17T11:25:56;10.33;;;5.67;;
25327;SDS011;13279;51.300;12.394;2024-03-17T11:31:41;12.70;;;6.93;;
25327;SDS011;13279;51.300;12.394;2024-03-17T11:37:05;14.37;;;7.20;;
25327;SDS011;13279;51.300;12.394;2024-03-17T11:39:49;11.77;;;6.80;;
25327;SDS011;13279;51.300;12.394;2024-03-17T11:42:22;9.17;;;6.50;;
25327;SDS011;13279;51.300;12.394;2024-03-17T11:45:00;11.97;;;6.63;;
25327;SDS011;13279;51.300;12.394;2024-03-17T11:47:40;13.33;;;7.47;;
25327;SDS011;13279;51.300;12.394;2024-03-17T11:50:09;13.57;;;7.03;;
25327;SDS011;13279;51.300;12.394;2024-03-17T11:52:36;15.03;;;6.87;;
25327;SDS011;13279;51.300;12.394;2024-03-17T11:55:10;12.60;;;6.90;;
25327;SDS011;13279;51.300;12.394;2024-03-17T11:57:41;13.63;;;6.90;;
25327;SDS011;13279;51.300;12.394;2024-03-17T12:00:18;10.43;;;6.67;;
25327;SDS011;13279;51.300;12.394;2024-03-17T12:02:47;10.03;;;6.50;;
25327;SDS011;13279;51.300;12.394;2024-03-17T12:05:15;11.23;;;6.67;;
25327;SDS011;13279;51.300;12.394;2024-03-17T12:07:42;7.60;;;6.27;;
25327;SDS011;13279;51.300;12.394;2024-03-17T12:10:10;10.33;;;5.83;;
25327;SDS011;13279;51.300;12.394;2024-03-17T12:12:38;12.30;;;6.43;;
25327;SDS011;13279;51.300;12.394;2024-03-17T12:15:16;7.80;;;6.40;;
25327;SDS011;13279;51.300;12.394;2024-03-17T12:17:43;15.40;;;7.33;;
25327;SDS011;13279;51.300;12.394;2024-03-17T12:20:27;11.57;;;7.47;;
25327;SDS011;13279;51.300;12.394;2024-03-17T12:22:54;15.30;;;7.07;;
25327;SDS011;13279;51.300;12.394;2024-03-17T12:25:22;8.87;;;6.00;;
25327;SDS011;13279;51.300;12.394;2024-03-17T12:27:51;9.97;;;6.27;;
25327;SDS011;13279;51.300;12.394;2024-03-17T12:30:17;9.57;;;5.43;;
25327;SDS011;13279;51.300;12.394;2024-03-17T12:32:46;9.23;;;6.00;;
25327;SDS011;13279;51.300;12.394;2024-03-17T12:35:14;9.93;;;5.53;;
25327;SDS011;13279;51.300;12.394;2024-03-17T12:37:45;11.40;;;5.40;;
25327;SDS011;13279;51.300;12.394;2024-03-17T12:40:20;12.57;;;5.57;;
25327;SDS011;13279;51.300;12.394;2024-03-17T12:42:50;7.07;;;4.90;;
25327;SDS011;13279;51.300;12.394;2024-03-17T12:45:19;12.37;;;4.97;;
25327;SDS011;13279;51.300;12.394;2024-03-17T12:47:47;7.97;;;5.50;;
25327;SDS011;13279;51.300;12.394;2024-03-17T12:50:14;9.70;;;5.63;;
25327;SDS011;13279;51.300;12.394;2024-03-17T12:52:52;11.00;;;6.27;;
25327;SDS011;13279;51.300;12.394;2024-03-17T12:55:19;9.93;;;5.67;;
25327;SDS011;13279;51.300;12.394;2024-03-17T12:58:05;11.30;;;5.47;;
25327;SDS011;13279;51.300;12.394;2024-03-17T13:00:56;7.97;;;5.20;;
25327;SDS011;13279;51.300;12.394;2024-03-17T13:03:26;5.80;;;4.50;;
25327;SDS011;13279;51.300;12.394;2024-03-17T13:05:54;6.23;;;4.53;;
25327;SDS011;13279;51.300;12.394;2024-03-17T13:08:22;10.90;;;4.83;;
25327;SDS011;13279;51.300;12.394;2024-03-17T13:10:49;7.27;;;4.80;;
25327;SDS011;13279;51.300;12.394;2024-03-17T13:13:17;12.73;;;6.57;;
25327;SDS011;13279;51.300;12.394;2024-03-17T13:15:45;42.60;;;14.80;;
25327;SDS011;13279;51.300;12.394;2024-03-17T13:18:15;14.93;;;6.97;;
25327;SDS011;13279;51.300;12.394;2024-03-17T13:20:48;11.77;;;5.97;;
25327;SDS011;13279;51.300;12.394;2024-03-17T13:23:16;8.57;;;5.23;;
25327;SDS011;13279;51.300;12.394;2024-03-17T13:25:45;9.10;;;5.40;;
25327;SDS011;13279;51.300;12.394;2024-03-17T13:28:13;11.10;;;5.37;;
25327;SDS011;13279;51.300;12.394;2024-03-17T13:30:40;7.30;;;4.53;;
25327;SDS011;13279;51.300;12.394;2024-03-17T13:33:09;11.80;;;4.60;;
25327;SDS011;13279;51.300;12.394;2024-03-17T13:35:37;13.83;;;5.00;;
25327;SDS011;13279;51.300;12.394;2024-03-17T13:38:06;8.10;;;4.80;;
25327;SDS011;13279;51.300;12.394;2024-03-17T13:40:35;7.07;;;4.27;;
25327;SDS011;13279;51.300;12.394;2024-03-17T13:43:05;5.33;;;3.80;;
25327;SDS011;13279;51.300;12.394;2024-03-17T13:45:37;7.73;;;4.53;;
25327;SDS011;13279;51.300;12.394;2024-03-17T13:48:06;7.80;;;4.57;;
25327;SDS011;13279;51.300;12.394;2024-03-17T13:50:36;9.17;;;4.23;;
25327;SDS011;13279;51.300;12.394;2024-03-17T13:53:04;8.33;;;3.60;;
25327;SDS011;13279;51.300;12.394;2024-03-17T13:55:32;5.20;;;3.50;;
25327;SDS011;13279;51.300;12.394;2024-03-17T13:58:00;6.60;;;3.40;;
25327;SDS011;13279;51.300;12.394;2024-03-17T14:00:29;5.77;;;3.30;;
25327;SDS011;13279;51.300;12.394;2024-03-17T14:02:59;4.20;;;2.70;;
25327;SDS011;13279;51.300;12.394;2024-03-17T14:05:27;6.40;;;3.37;;
25327;SDS011;13279;51.300;12.394;2024-03-17T14:07:55;5.47;;;3.50;;
25327;SDS011;13279;51.300;12.394;2024-03-17T14:10:23;5.27;;;2.67;;
25327;SDS011;13279;51.300;12.394;2024-03-17T14:12:51;4.27;;;2.63;;
25327;SDS011;13279;51.300;12.394;2024-03-17T14:15:19;7.43;;;3.07;;
25327;SDS011;13279;51.300;12.394;2024-03-17T14:17:48;10.40;;;2.80;;
25327;SDS011;13279;51.300;12.394;2024-03-17T14:20:15;5.50;;;2.50;;
25327;SDS011;13279;51.300;12.394;2024-03-17T14:22:45;4.27;;;2.57;;
25327;SDS011;13279;51.300;12.394;2024-03-17T14:25:18;9.83;;;2.50;;
25327;SDS011;13279;51.300;12.394;2024-03-17T14:27:46;3.87;;;2.50;;
25327;SDS011;13279;51.300;12.394;2024-03-17T14:30:15;5.53;;;3.20;;
25327;SDS011;13279;51.300;12.394;2024-03-17T14:32:43;4.30;;;2.83;;
25327;SDS011;13279;51.300;12.394;2024-03-17T14:35:12;4.73;;;2.83;;
25327;SDS011;13279;51.300;12.394;2024-03-17T14:37:41;10.63;;;3.97;;
25327;SDS011;13279;51.300;12.394;2024-03-17T14:40:13;6.33;;;2.93;;
25327;SDS011;13279;51.300;12.394;2024-03-17T14:42:47;5.73;;;3.17;;
25327;SDS011;13279;51.300;12.394;2024-03-17T14:45:14;3.13;;;2.30;;
25327;SDS011;13279;51.300;12.394;2024-03-17T14:47:42;9.23;;;2.57;;
25327;SDS011;13279;51.300;12.394;2024-03-17T14:50:09;4.83;;;2.77;;
25327;SDS011;13279;51.300;12.394;2024-03-17T14:52:39;7.63;;;2.90;;
25327;SDS011;13279;51.300;12.394;2024-03-17T14:55:07;8.43;;;2.67;;